sensor_id;sensor_type;location;lat;lon;timestamp;temperature;humidity
11426;DHT22;5769;47.998;7.788;2023-09-30T00:01:40;22.10;68.70
11426;DHT22;5769;47.998;7.788;2023-09-30T00:04:07;22.10;68.70
11426;DHT22;5769;47.998;7.788;2023-09-30T00:06:34;22.10;68.80
11426;DHT22;5769;47.998;7.788;2023-09-30T00:09:01;22.10;68.70
11426;DHT22;5769;47.998;7.788;2023-09-30T00:11:28;22.10;68.70
11426;DHT22;5769;47.998;7.788;2023-09-30T00:13:56;22.10;68.70
11426;DHT22;5769;47.998;7.788;2023-09-30T00:16:23;22.10;68.70
11426;DHT22;5769;47.998;7.788;2023-09-30T00:18:49;22.10;68.70
11426;DHT22;5769;47.998;7.788;2023-09-30T00:21:16;22.10;68.70
11426;DHT22;5769;47.998;7.788;2023-09-30T00:23:43;22.10;68.70
11426;DHT22;5769;47.998;7.788;2023-09-30T00:26:09;22.10;68.70
11426;DHT22;5769;47.998;7.788;2023-09-30T00:28:36;22.10;68.70
11426;DHT22;5769;47.998;7.788;2023-09-30T00:31:08;22.10;68.70
11426;DHT22;5769;47.998;7.788;2023-09-30T00:33:35;22.10;68.70
11426;DHT22;5769;47.998;7.788;2023-09-30T00:36:06;22.10;68.70
11426;DHT22;5769;47.998;7.788;2023-09-30T00:38:33;22.10;68.70
11426;DHT22;5769;47.998;7.788;2023-09-30T00:41:00;22.10;68.70
11426;DHT22;5769;47.998;7.788;2023-09-30T00:43:26;22.10;68.70
11426;DHT22;5769;47.998;7.788;2023-09-30T00:46:02;22.10;68.70
11426;DHT22;5769;47.998;7.788;2023-09-30T00:48:32;22.10;68.70
11426;DHT22;5769;47.998;7.788;2023-09-30T00:50:59;22.10;68.70
11426;DHT22;5769;47.998;7.788;2023-09-30T00:53:27;22.10;68.70
11426;DHT22;5769;47.998;7.788;2023-09-30T00:55:55;22.10;68.70
11426;DHT22;5769;47.998;7.788;2023-09-30T00:58:23;22.10;68.70
11426;DHT22;5769;47.998;7.788;2023-09-30T01:00:52;22.10;68.60
11426;DHT22;5769;47.998;7.788;2023-09-30T01:03:18;22.10;68.60
11426;DHT22;5769;47.998;7.788;2023-09-30T01:05:46;22.10;68.70
11426;DHT22;5769;47.998;7.788;2023-09-30T01:08:15;22.10;68.60
11426;DHT22;5769;47.998;7.788;2023-09-30T01:10:42;22.10;68.60
11426;DHT22;5769;47.998;7.788;2023-09-30T01:13:08;22.10;68.60
11426;DHT22;5769;47.998;7.788;2023-09-30T01:15:35;22.10;68.60
11426;DHT22;5769;47.998;7.788;2023-09-30T01:18:02;22.10;68.70
11426;DHT22;5769;47.998;7.788;2023-09-30T01:20:30;22.10;68.60
11426;DHT22;5769;47.998;7.788;2023-09-30T01:22:58;22.10;68.60
11426;DHT22;5769;47.998;7.788;2023-09-30T01:25:25;22.10;68.60
11426;DHT22;5769;47.998;7.788;2023-09-30T01:27:51;22.10;69.30
11426;DHT22;5769;47.998;7.788;2023-09-30T01:30:19;22.10;68.60
11426;DHT22;5769;47.998;7.788;2023-09-30T01:32:47;22.10;68.60
11426;DHT22;5769;47.998;7.788;2023-09-30T01:35:14;22.10;68.60
11426;DHT22;5769;47.998;7.788;2023-09-30T01:37:41;22.10;68.60
11426;DHT22;5769;47.998;7.788;2023-09-30T01:40:10;22.10;68.60
11426;DHT22;5769;47.998;7.788;2023-09-30T01:42:36;22.10;69.30
11426;DHT22;5769;47.998;7.788;2023-09-30T01:45:04;22.10;68.60
11426;DHT22;5769;47.998;7.788;2023-09-30T01:47:31;22.10;68.60
11426;DHT22;5769;47.998;7.788;2023-09-30T01:49:58;22.10;68.60
11426;DHT22;5769;47.998;7.788;2023-09-30T01:52:25;22.10;68.60
11426;DHT22;5769;47.998;7.788;2023-09-30T01:54:51;22.10;68.60
11426;DHT22;5769;47.998;7.788;2023-09-30T01:57:20;22.10;68.60
11426;DHT22;5769;47.998;7.788;2023-09-30T01:59:47;22.10;68.60
11426;DHT22;5769;47.998;7.788;2023-09-30T02:02:14;22.10;68.60
11426;DHT22;5769;47.998;7.788;2023-09-30T02:04:41;22.10;68.60
11426;DHT22;5769;47.998;7.788;2023-09-30T02:07:09;22.10;68.60
11426;DHT22;5769;47.998;7.788;2023-09-30T02:09:35;22.10;68.60
11426;DHT22;5769;47.998;7.788;2023-09-30T02:12:02;22.10;68.60
11426;DHT22;5769;47.998;7.788;2023-09-30T02:14:31;22.10;68.60
11426;DHT22;5769;47.998;7.788;2023-09-30T02:16:58;22.10;68.50
11426;DHT22;5769;47.998;7.788;2023-09-30T02:19:25;22.10;68.50
11426;DHT22;5769;47.998;7.788;2023-09-30T02:21:53;22.10;68.50
11426;DHT22;5769;47.998;7.788;2023-09-30T02:24:19;22.10;68.50
11426;DHT22;5769;47.998;7.788;2023-09-30T02:26:48;22.10;68.50
11426;DHT22;5769;47.998;7.788;2023-09-30T02:29:15;22.10;68.50
11426;DHT22;5769;47.998;7.788;2023-09-30T02:31:43;22.10;68.50
11426;DHT22;5769;47.998;7.788;2023-09-30T02:34:09;22.10;68.50
11426;DHT22;5769;47.998;7.788;2023-09-30T02:36:36;22.10;68.50
11426;DHT22;5769;47.998;7.788;2023-09-30T02:39:05;22.10;68.50
11426;DHT22;5769;47.998;7.788;2023-09-30T02:41:34;22.10;68.50
11426;DHT22;5769;47.998;7.788;2023-09-30T02:44:01;22.10;68.50
11426;DHT22;5769;47.998;7.788;2023-09-30T02:46:27;22.10;68.50
11426;DHT22;5769;47.998;7.788;2023-09-30T02:48:55;22.10;68.50
11426;DHT22;5769;47.998;7.788;2023-09-30T02:51:22;22.10;68.50
11426;DHT22;5769;47.998;7.788;2023-09-30T02:53:50;22.10;68.50
11426;DHT22;5769;47.998;7.788;2023-09-30T02:56:17;22.10;68.50
11426;DHT22;5769;47.998;7.788;2023-09-30T02:58:45;22.10;68.50
11426;DHT22;5769;47.998;7.788;2023-09-30T03:01:14;22.10;68.50
11426;DHT22;5769;47.998;7.788;2023-09-30T03:03:42;22.00;68.40
11426;DHT22;5769;47.998;7.788;2023-09-30T03:06:10;22.10;68.50
11426;DHT22;5769;47.998;7.788;2023-09-30T03:08:37;22.10;68.50
11426;DHT22;5769;47.998;7.788;2023-09-30T03:11:04;22.10;68.50
11426;DHT22;5769;47.998;7.788;2023-09-30T03:13:31;22.10;68.50
11426;DHT22;5769;47.998;7.788;2023-09-30T03:15:57;22.10;68.50
11426;DHT22;5769;47.998;7.788;2023-09-30T03:18:24;22.10;68.50
11426;DHT22;5769;47.998;7.788;2023-09-30T03:20:52;22.10;68.50
11426;DHT22;5769;47.998;7.788;2023-09-30T03:23:23;22.10;68.50
11426;DHT22;5769;47.998;7.788;2023-09-30T03:25:55;22.10;68.50
11426;DHT22;5769;47.998;7.788;2023-09-30T03:28:22;22.10;68.50
11426;DHT22;5769;47.998;7.788;2023-09-30T03:30:49;22.10;68.50
11426;DHT22;5769;47.998;7.788;2023-09-30T03:33:16;22.10;68.50
11426;DHT22;5769;47.998;7.788;2023-09-30T03:35:42;22.10;68.50
11426;DHT22;5769;47.998;7.788;2023-09-30T03:38:10;22.10;68.50
11426;DHT22;5769;47.998;7.788;2023-09-30T03:40:39;22.10;68.50
11426;DHT22;5769;47.998;7.788;2023-09-30T03:43:10;22.10;68.50
11426;DHT22;5769;47.998;7.788;2023-09-30T03:45:37;22.10;68.50
11426;DHT22;5769;47.998;7.788;2023-09-30T03:48:05;22.00;68.40
11426;DHT22;5769;47.998;7.788;2023-09-30T03:50:31;22.10;68.40
11426;DHT22;5769;47.998;7.788;2023-09-30T03:53:01;22.10;68.40
11426;DHT22;5769;47.998;7.788;2023-09-30T03:55:28;22.10;68.50
11426;DHT22;5769;47.998;7.788;2023-09-30T03:57:57;22.10;68.40
11426;DHT22;5769;47.998;7.788;2023-09-30T04:00:24;22.10;68.40
11426;DHT22;5769;47.998;7.788;2023-09-30T04:02:50;22.10;68.50
11426;DHT22;5769;47.998;7.788;2023-09-30T04:05:20;22.10;68.40
11426;DHT22;5769;47.998;7.788;2023-09-30T04:07:51;22.10;68.50
11426;DHT22;5769;47.998;7.788;2023-09-30T04:10:18;22.10;68.40
11426;DHT22;5769;47.998;7.788;2023-09-30T04:12:45;22.10;68.40
11426;DHT22;5769;47.998;7.788;2023-09-30T04:15:13;22.10;68.40
11426;DHT22;5769;47.998;7.788;2023-09-30T04:17:40;22.00;68.40
11426;DHT22;5769;47.998;7.788;2023-09-30T04:20:07;22.10;68.40
11426;DHT22;5769;47.998;7.788;2023-09-30T04:22:35;22.10;68.40
11426;DHT22;5769;47.998;7.788;2023-09-30T04:25:02;22.10;68.40
11426;DHT22;5769;47.998;7.788;2023-09-30T04:27:31;22.10;68.40
11426;DHT22;5769;47.998;7.788;2023-09-30T04:29:58;22.10;68.40
11426;DHT22;5769;47.998;7.788;2023-09-30T04:32:26;22.00;68.30
11426;DHT22;5769;47.998;7.788;2023-09-30T04:34:53;22.10;68.40
11426;DHT22;5769;47.998;7.788;2023-09-30T04:37:20;22.00;68.30
11426;DHT22;5769;47.998;7.788;2023-09-30T04:39:47;22.00;68.50
11426;DHT22;5769;47.998;7.788;2023-09-30T04:42:14;22.10;68.40
11426;DHT22;5769;47.998;7.788;2023-09-30T04:44:41;22.00;68.30
11426;DHT22;5769;47.998;7.788;2023-09-30T04:47:09;22.10;68.40
11426;DHT22;5769;47.998;7.788;2023-09-30T04:49:37;22.10;68.40
11426;DHT22;5769;47.998;7.788;2023-09-30T04:52:03;22.00;68.30
11426;DHT22;5769;47.998;7.788;2023-09-30T04:54:32;22.10;68.30
11426;DHT22;5769;47.998;7.788;2023-09-30T04:57:00;22.00;68.30
11426;DHT22;5769;47.998;7.788;2023-09-30T04:59:27;22.10;68.30
11426;DHT22;5769;47.998;7.788;2023-09-30T05:01:55;22.10;68.30
11426;DHT22;5769;47.998;7.788;2023-09-30T05:04:21;22.10;68.30
11426;DHT22;5769;47.998;7.788;2023-09-30T05:06:50;22.10;68.30
11426;DHT22;5769;47.998;7.788;2023-09-30T05:09:17;22.00;68.20
11426;DHT22;5769;47.998;7.788;2023-09-30T05:11:44;22.00;68.20
11426;DHT22;5769;47.998;7.788;2023-09-30T05:14:10;22.00;68.20
11426;DHT22;5769;47.998;7.788;2023-09-30T05:16:37;22.10;68.30
11426;DHT22;5769;47.998;7.788;2023-09-30T05:19:04;22.00;68.20
11426;DHT22;5769;47.998;7.788;2023-09-30T05:21:31;22.10;68.20
11426;DHT22;5769;47.998;7.788;2023-09-30T05:23:59;22.00;68.20
11426;DHT22;5769;47.998;7.788;2023-09-30T05:26:25;22.00;68.20
11426;DHT22;5769;47.998;7.788;2023-09-30T05:28:52;22.00;68.20
11426;DHT22;5769;47.998;7.788;2023-09-30T05:31:19;22.00;68.20
11426;DHT22;5769;47.998;7.788;2023-09-30T05:33:46;22.10;68.30
11426;DHT22;5769;47.998;7.788;2023-09-30T05:36:13;22.00;68.20
11426;DHT22;5769;47.998;7.788;2023-09-30T05:38:40;22.00;68.20
11426;DHT22;5769;47.998;7.788;2023-09-30T05:41:08;22.10;68.20
11426;DHT22;5769;47.998;7.788;2023-09-30T05:43:37;22.00;68.20
11426;DHT22;5769;47.998;7.788;2023-09-30T05:46:03;22.00;68.20
11426;DHT22;5769;47.998;7.788;2023-09-30T05:48:30;22.00;68.20
11426;DHT22;5769;47.998;7.788;2023-09-30T05:50:57;22.00;68.20
11426;DHT22;5769;47.998;7.788;2023-09-30T05:53:24;22.00;68.10
11426;DHT22;5769;47.998;7.788;2023-09-30T05:55:50;22.00;68.20
11426;DHT22;5769;47.998;7.788;2023-09-30T05:58:18;22.00;68.20
11426;DHT22;5769;47.998;7.788;2023-09-30T06:00:46;22.00;68.10
11426;DHT22;5769;47.998;7.788;2023-09-30T06:03:12;22.00;68.10
11426;DHT22;5769;47.998;7.788;2023-09-30T06:05:39;22.00;68.10
11426;DHT22;5769;47.998;7.788;2023-09-30T06:08:07;22.00;68.10
11426;DHT22;5769;47.998;7.788;2023-09-30T06:10:36;22.00;68.10
11426;DHT22;5769;47.998;7.788;2023-09-30T06:13:04;22.00;68.10
11426;DHT22;5769;47.998;7.788;2023-09-30T06:15:32;22.00;68.10
11426;DHT22;5769;47.998;7.788;2023-09-30T06:17:59;22.00;68.10
11426;DHT22;5769;47.998;7.788;2023-09-30T06:20:26;22.00;68.10
11426;DHT22;5769;47.998;7.788;2023-09-30T06:22:56;22.00;68.80
11426;DHT22;5769;47.998;7.788;2023-09-30T06:25:23;22.00;68.10
11426;DHT22;5769;47.998;7.788;2023-09-30T06:27:50;22.00;68.10
11426;DHT22;5769;47.998;7.788;2023-09-30T06:30:17;22.00;68.10
11426;DHT22;5769;47.998;7.788;2023-09-30T06:32:46;22.00;68.00
11426;DHT22;5769;47.998;7.788;2023-09-30T06:35:13;22.00;68.00
11426;DHT22;5769;47.998;7.788;2023-09-30T06:37:40;22.00;68.00
11426;DHT22;5769;47.998;7.788;2023-09-30T06:40:08;22.00;68.00
11426;DHT22;5769;47.998;7.788;2023-09-30T06:42:37;22.00;68.00
11426;DHT22;5769;47.998;7.788;2023-09-30T06:45:06;22.00;68.00
11426;DHT22;5769;47.998;7.788;2023-09-30T06:47:33;22.00;68.00
11426;DHT22;5769;47.998;7.788;2023-09-30T06:50:01;22.00;68.00
11426;DHT22;5769;47.998;7.788;2023-09-30T06:52:33;22.00;68.00
11426;DHT22;5769;47.998;7.788;2023-09-30T06:55:00;22.00;68.00
11426;DHT22;5769;47.998;7.788;2023-09-30T06:57:26;22.00;68.00
11426;DHT22;5769;47.998;7.788;2023-09-30T06:59:53;22.00;68.00
11426;DHT22;5769;47.998;7.788;2023-09-30T07:02:20;22.00;68.00
11426;DHT22;5769;47.998;7.788;2023-09-30T07:04:47;22.00;68.00
11426;DHT22;5769;47.998;7.788;2023-09-30T07:07:15;22.00;68.00
11426;DHT22;5769;47.998;7.788;2023-09-30T07:09:43;22.00;68.00
11426;DHT22;5769;47.998;7.788;2023-09-30T07:12:10;22.00;68.00
11426;DHT22;5769;47.998;7.788;2023-09-30T07:14:37;22.00;68.00
11426;DHT22;5769;47.998;7.788;2023-09-30T07:17:04;22.00;68.00
11426;DHT22;5769;47.998;7.788;2023-09-30T07:19:31;22.00;67.90
11426;DHT22;5769;47.998;7.788;2023-09-30T07:21:58;22.00;68.00
11426;DHT22;5769;47.998;7.788;2023-09-30T07:24:26;22.00;68.00
11426;DHT22;5769;47.998;7.788;2023-09-30T07:26:52;22.00;68.00
11426;DHT22;5769;47.998;7.788;2023-09-30T07:29:19;22.00;68.00
11426;DHT22;5769;47.998;7.788;2023-09-30T07:31:45;22.00;67.90
11426;DHT22;5769;47.998;7.788;2023-09-30T07:34:12;22.00;67.90
11426;DHT22;5769;47.998;7.788;2023-09-30T07:36:39;22.00;68.00
11426;DHT22;5769;47.998;7.788;2023-09-30T07:39:05;22.00;67.90
11426;DHT22;5769;47.998;7.788;2023-09-30T07:41:35;22.00;67.90
11426;DHT22;5769;47.998;7.788;2023-09-30T07:44:03;22.00;67.90
11426;DHT22;5769;47.998;7.788;2023-09-30T07:46:30;22.00;67.90
11426;DHT22;5769;47.998;7.788;2023-09-30T07:48:57;22.00;67.90
11426;DHT22;5769;47.998;7.788;2023-09-30T07:51:24;22.00;67.90
11426;DHT22;5769;47.998;7.788;2023-09-30T07:53:51;22.00;67.90
11426;DHT22;5769;47.998;7.788;2023-09-30T07:56:18;22.00;67.90
11426;DHT22;5769;47.998;7.788;2023-09-30T07:58:46;22.00;68.60
11426;DHT22;5769;47.998;7.788;2023-09-30T08:01:14;22.00;67.90
11426;DHT22;5769;47.998;7.788;2023-09-30T08:03:40;22.00;67.90
11426;DHT22;5769;47.998;7.788;2023-09-30T08:06:07;22.00;67.90
11426;DHT22;5769;47.998;7.788;2023-09-30T08:08:35;22.00;67.90
11426;DHT22;5769;47.998;7.788;2023-09-30T08:11:02;22.00;68.00
11426;DHT22;5769;47.998;7.788;2023-09-30T08:13:30;22.00;68.00
11426;DHT22;5769;47.998;7.788;2023-09-30T08:15:59;22.00;68.00
11426;DHT22;5769;47.998;7.788;2023-09-30T08:18:26;22.00;68.00
11426;DHT22;5769;47.998;7.788;2023-09-30T08:20:53;22.00;67.90
11426;DHT22;5769;47.998;7.788;2023-09-30T08:23:19;22.00;67.90
11426;DHT22;5769;47.998;7.788;2023-09-30T08:25:46;22.00;68.00
11426;DHT22;5769;47.998;7.788;2023-09-30T08:28:13;22.10;68.00
11426;DHT22;5769;47.998;7.788;2023-09-30T08:30:40;22.10;68.00
11426;DHT22;5769;47.998;7.788;2023-09-30T08:33:07;22.10;68.80
11426;DHT22;5769;47.998;7.788;2023-09-30T08:35:35;22.10;68.10
11426;DHT22;5769;47.998;7.788;2023-09-30T08:38:03;22.10;68.10
11426;DHT22;5769;47.998;7.788;2023-09-30T08:40:31;22.10;68.10
11426;DHT22;5769;47.998;7.788;2023-09-30T08:42:58;22.10;68.10
11426;DHT22;5769;47.998;7.788;2023-09-30T08:45:28;22.10;68.10
11426;DHT22;5769;47.998;7.788;2023-09-30T08:47:57;22.10;68.10
11426;DHT22;5769;47.998;7.788;2023-09-30T08:50:27;22.10;68.10
11426;DHT22;5769;47.998;7.788;2023-09-30T08:52:54;22.10;68.10
11426;DHT22;5769;47.998;7.788;2023-09-30T08:55:22;22.10;68.10
11426;DHT22;5769;47.998;7.788;2023-09-30T08:57:51;22.10;68.10
11426;DHT22;5769;47.998;7.788;2023-09-30T09:00:19;22.10;68.10
11426;DHT22;5769;47.998;7.788;2023-09-30T09:02:46;22.10;68.20
11426;DHT22;5769;47.998;7.788;2023-09-30T09:05:14;22.10;68.10
11426;DHT22;5769;47.998;7.788;2023-09-30T09:07:42;22.10;68.10
11426;DHT22;5769;47.998;7.788;2023-09-30T09:10:10;22.10;68.10
11426;DHT22;5769;47.998;7.788;2023-09-30T09:12:39;22.10;68.20
11426;DHT22;5769;47.998;7.788;2023-09-30T09:15:08;22.10;68.20
11426;DHT22;5769;47.998;7.788;2023-09-30T09:17:43;22.10;68.20
11426;DHT22;5769;47.998;7.788;2023-09-30T09:20:11;22.10;68.20
11426;DHT22;5769;47.998;7.788;2023-09-30T09:22:41;22.10;68.30
11426;DHT22;5769;47.998;7.788;2023-09-30T09:25:09;22.10;68.30
11426;DHT22;5769;47.998;7.788;2023-09-30T09:27:36;22.10;68.30
11426;DHT22;5769;47.998;7.788;2023-09-30T09:30:20;22.10;68.30
11426;DHT22;5769;47.998;7.788;2023-09-30T09:32:54;22.10;68.30
11426;DHT22;5769;47.998;7.788;2023-09-30T09:35:22;22.10;68.50
11426;DHT22;5769;47.998;7.788;2023-09-30T09:37:58;22.10;68.40
11426;DHT22;5769;47.998;7.788;2023-09-30T09:40:26;22.10;68.50
11426;DHT22;5769;47.998;7.788;2023-09-30T09:42:54;22.10;68.50
11426;DHT22;5769;47.998;7.788;2023-09-30T09:45:21;22.10;68.40
11426;DHT22;5769;47.998;7.788;2023-09-30T09:47:49;22.10;68.50
11426;DHT22;5769;47.998;7.788;2023-09-30T09:50:18;22.10;68.50
11426;DHT22;5769;47.998;7.788;2023-09-30T09:52:47;22.00;68.50
11426;DHT22;5769;47.998;7.788;2023-09-30T09:55:17;22.10;68.50
11426;DHT22;5769;47.998;7.788;2023-09-30T09:57:45;22.10;68.70
11426;DHT22;5769;47.998;7.788;2023-09-30T10:00:13;22.10;68.70
11426;DHT22;5769;47.998;7.788;2023-09-30T10:02:41;22.10;68.70
11426;DHT22;5769;47.998;7.788;2023-09-30T10:05:08;22.10;68.80
11426;DHT22;5769;47.998;7.788;2023-09-30T10:07:39;22.10;68.80
11426;DHT22;5769;47.998;7.788;2023-09-30T10:10:13;22.10;68.90
11426;DHT22;5769;47.998;7.788;2023-09-30T10:12:42;22.10;68.90
11426;DHT22;5769;47.998;7.788;2023-09-30T10:15:39;22.10;68.90
11426;DHT22;5769;47.998;7.788;2023-09-30T10:18:09;22.10;68.90
11426;DHT22;5769;47.998;7.788;2023-09-30T10:20:37;22.10;69.00
11426;DHT22;5769;47.998;7.788;2023-09-30T10:23:23;22.10;69.00
11426;DHT22;5769;47.998;7.788;2023-09-30T10:25:52;22.10;69.10
11426;DHT22;5769;47.998;7.788;2023-09-30T10:28:37;22.00;69.10
11426;DHT22;5769;47.998;7.788;2023-09-30T10:31:09;22.10;69.20
11426;DHT22;5769;47.998;7.788;2023-09-30T10:33:37;22.10;69.20
11426;DHT22;5769;47.998;7.788;2023-09-30T10:36:27;22.10;69.20
11426;DHT22;5769;47.998;7.788;2023-09-30T10:38:54;22.10;69.30
11426;DHT22;5769;47.998;7.788;2023-09-30T10:44:35;22.10;69.40
11426;DHT22;5769;47.998;7.788;2023-09-30T10:47:35;22.10;69.40
11426;DHT22;5769;47.998;7.788;2023-09-30T10:50:04;22.10;69.40
11426;DHT22;5769;47.998;7.788;2023-09-30T10:52:50;22.10;69.40
11426;DHT22;5769;47.998;7.788;2023-09-30T10:55:19;22.10;69.50
11426;DHT22;5769;47.998;7.788;2023-09-30T10:57:50;22.10;69.50
11426;DHT22;5769;47.998;7.788;2023-09-30T11:00:20;22.10;69.60
11426;DHT22;5769;47.998;7.788;2023-09-30T11:02:49;22.10;69.50
11426;DHT22;5769;47.998;7.788;2023-09-30T11:05:16;22.10;69.50
11426;DHT22;5769;47.998;7.788;2023-09-30T11:07:45;22.10;69.50
11426;DHT22;5769;47.998;7.788;2023-09-30T11:10:16;22.10;69.50
11426;DHT22;5769;47.998;7.788;2023-09-30T11:12:54;22.10;69.50
11426;DHT22;5769;47.998;7.788;2023-09-30T11:15:22;22.10;69.60
11426;DHT22;5769;47.998;7.788;2023-09-30T11:17:49;22.10;69.60
11426;DHT22;5769;47.998;7.788;2023-09-30T11:20:16;22.10;69.60
11426;DHT22;5769;47.998;7.788;2023-09-30T11:22:43;22.10;69.60
11426;DHT22;5769;47.998;7.788;2023-09-30T11:25:15;22.10;69.60
11426;DHT22;5769;47.998;7.788;2023-09-30T11:27:43;22.10;69.60
11426;DHT22;5769;47.998;7.788;2023-09-30T11:30:10;22.10;69.60
11426;DHT22;5769;47.998;7.788;2023-09-30T11:32:40;22.10;70.70
11426;DHT22;5769;47.998;7.788;2023-09-30T11:35:09;22.10;69.80
11426;DHT22;5769;47.998;7.788;2023-09-30T11:37:36;22.10;69.90
11426;DHT22;5769;47.998;7.788;2023-09-30T11:40:10;22.10;70.00
11426;DHT22;5769;47.998;7.788;2023-09-30T11:42:36;22.10;70.00
11426;DHT22;5769;47.998;7.788;2023-09-30T11:45:18;22.10;69.90
11426;DHT22;5769;47.998;7.788;2023-09-30T11:47:47;22.10;69.90
11426;DHT22;5769;47.998;7.788;2023-09-30T11:50:14;22.10;70.60
11426;DHT22;5769;47.998;7.788;2023-09-30T11:52:44;22.10;69.90
11426;DHT22;5769;47.998;7.788;2023-09-30T11:55:11;22.10;69.80
11426;DHT22;5769;47.998;7.788;2023-09-30T11:57:39;22.10;69.90
11426;DHT22;5769;47.998;7.788;2023-09-30T12:00:07;22.10;69.80
11426;DHT22;5769;47.998;7.788;2023-09-30T12:02:39;22.10;70.00
11426;DHT22;5769;47.998;7.788;2023-09-30T12:05:07;22.10;70.00
11426;DHT22;5769;47.998;7.788;2023-09-30T12:07:37;22.10;69.90
11426;DHT22;5769;47.998;7.788;2023-09-30T12:10:04;22.10;69.90
11426;DHT22;5769;47.998;7.788;2023-09-30T12:12:30;22.10;69.90
11426;DHT22;5769;47.998;7.788;2023-09-30T12:14:57;22.10;69.80
11426;DHT22;5769;47.998;7.788;2023-09-30T12:17:24;22.10;69.80
11426;DHT22;5769;47.998;7.788;2023-09-30T12:19:50;22.10;69.90
11426;DHT22;5769;47.998;7.788;2023-09-30T12:22:19;22.10;69.90
11426;DHT22;5769;47.998;7.788;2023-09-30T12:24:46;22.10;69.90
11426;DHT22;5769;47.998;7.788;2023-09-30T12:27:13;22.10;69.90
11426;DHT22;5769;47.998;7.788;2023-09-30T12:29:40;22.10;70.00
11426;DHT22;5769;47.998;7.788;2023-09-30T12:32:06;22.10;70.00
11426;DHT22;5769;47.998;7.788;2023-09-30T12:34:33;22.10;70.00
11426;DHT22;5769;47.998;7.788;2023-09-30T12:37:01;22.10;70.70
11426;DHT22;5769;47.998;7.788;2023-09-30T12:39:30;22.10;70.70
11426;DHT22;5769;47.998;7.788;2023-09-30T12:41:58;22.10;70.00
11426;DHT22;5769;47.998;7.788;2023-09-30T12:44:25;22.10;69.90
11426;DHT22;5769;47.998;7.788;2023-09-30T12:46:52;22.10;69.90
11426;DHT22;5769;47.998;7.788;2023-09-30T12:49:18;22.10;70.00
11426;DHT22;5769;47.998;7.788;2023-09-30T12:51:45;22.10;70.00
11426;DHT22;5769;47.998;7.788;2023-09-30T12:54:12;22.10;69.90
11426;DHT22;5769;47.998;7.788;2023-09-30T12:56:41;22.10;70.00
11426;DHT22;5769;47.998;7.788;2023-09-30T12:59:08;22.10;69.90
11426;DHT22;5769;47.998;7.788;2023-09-30T13:01:35;22.10;69.90
11426;DHT22;5769;47.998;7.788;2023-09-30T13:04:01;22.10;69.90
11426;DHT22;5769;47.998;7.788;2023-09-30T13:06:28;22.10;69.90
11426;DHT22;5769;47.998;7.788;2023-09-30T13:08:57;22.10;69.90
11426;DHT22;5769;47.998;7.788;2023-09-30T13:11:24;22.10;69.90
11426;DHT22;5769;47.998;7.788;2023-09-30T13:13:52;22.10;69.80
11426;DHT22;5769;47.998;7.788;2023-09-30T13:16:19;22.10;69.70
11426;DHT22;5769;47.998;7.788;2023-09-30T13:18:45;22.10;70.40
11426;DHT22;5769;47.998;7.788;2023-09-30T13:21:13;22.10;69.60
11426;DHT22;5769;47.998;7.788;2023-09-30T13:23:40;22.10;69.60
11426;DHT22;5769;47.998;7.788;2023-09-30T13:26:07;22.10;69.60
11426;DHT22;5769;47.998;7.788;2023-09-30T13:28:37;22.10;69.60
11426;DHT22;5769;47.998;7.788;2023-09-30T13:31:07;22.10;69.60
11426;DHT22;5769;47.998;7.788;2023-09-30T13:33:41;22.10;69.60
11426;DHT22;5769;47.998;7.788;2023-09-30T13:36:08;22.10;69.60
11426;DHT22;5769;47.998;7.788;2023-09-30T13:38:35;22.10;69.60
11426;DHT22;5769;47.998;7.788;2023-09-30T13:41:02;22.10;69.60
11426;DHT22;5769;47.998;7.788;2023-09-30T13:43:29;22.10;69.60
11426;DHT22;5769;47.998;7.788;2023-09-30T13:45:56;22.10;69.60
11426;DHT22;5769;47.998;7.788;2023-09-30T13:48:28;22.10;69.60
11426;DHT22;5769;47.998;7.788;2023-09-30T13:50:57;22.10;69.50
11426;DHT22;5769;47.998;7.788;2023-09-30T13:53:30;22.10;69.50
11426;DHT22;5769;47.998;7.788;2023-09-30T13:55:57;22.10;69.50
11426;DHT22;5769;47.998;7.788;2023-09-30T13:58:24;22.10;69.50
11426;DHT22;5769;47.998;7.788;2023-09-30T14:00:51;22.10;69.50
11426;DHT22;5769;47.998;7.788;2023-09-30T14:03:18;22.00;69.40
11426;DHT22;5769;47.998;7.788;2023-09-30T14:05:47;22.10;69.40
11426;DHT22;5769;47.998;7.788;2023-09-30T14:08:18;22.10;69.40
11426;DHT22;5769;47.998;7.788;2023-09-30T14:10:45;22.10;69.30
11426;DHT22;5769;47.998;7.788;2023-09-30T14:13:12;22.10;69.30
11426;DHT22;5769;47.998;7.788;2023-09-30T14:15:40;22.00;69.30
11426;DHT22;5769;47.998;7.788;2023-09-30T14:18:10;22.10;69.20
11426;DHT22;5769;47.998;7.788;2023-09-30T14:20:40;22.10;69.20
11426;DHT22;5769;47.998;7.788;2023-09-30T14:23:08;22.10;69.20
11426;DHT22;5769;47.998;7.788;2023-09-30T14:25:36;22.00;69.10
11426;DHT22;5769;47.998;7.788;2023-09-30T14:28:06;22.10;69.20
11426;DHT22;5769;47.998;7.788;2023-09-30T14:30:40;22.00;69.10
11426;DHT22;5769;47.998;7.788;2023-09-30T14:33:13;22.00;69.10
11426;DHT22;5769;47.998;7.788;2023-09-30T14:35:42;22.00;69.10
11426;DHT22;5769;47.998;7.788;2023-09-30T14:38:14;22.00;69.10
11426;DHT22;5769;47.998;7.788;2023-09-30T14:40:44;22.00;69.10
11426;DHT22;5769;47.998;7.788;2023-09-30T14:43:11;22.00;69.00
11426;DHT22;5769;47.998;7.788;2023-09-30T14:45:38;22.00;69.00
11426;DHT22;5769;47.998;7.788;2023-09-30T14:48:06;22.00;69.00
11426;DHT22;5769;47.998;7.788;2023-09-30T14:50:32;22.00;68.90
11426;DHT22;5769;47.998;7.788;2023-09-30T14:52:59;22.00;69.00
11426;DHT22;5769;47.998;7.788;2023-09-30T14:55:33;22.00;69.00
11426;DHT22;5769;47.998;7.788;2023-09-30T14:58:00;22.10;69.00
11426;DHT22;5769;47.998;7.788;2023-09-30T15:00:32;22.00;68.90
11426;DHT22;5769;47.998;7.788;2023-09-30T15:02:58;22.00;68.90
11426;DHT22;5769;47.998;7.788;2023-09-30T15:05:25;22.00;68.90
11426;DHT22;5769;47.998;7.788;2023-09-30T15:07:55;22.10;68.90
11426;DHT22;5769;47.998;7.788;2023-09-30T15:10:24;22.10;68.90
11426;DHT22;5769;47.998;7.788;2023-09-30T15:12:54;22.00;68.90
11426;DHT22;5769;47.998;7.788;2023-09-30T15:15:35;22.10;68.90
11426;DHT22;5769;47.998;7.788;2023-09-30T15:18:13;22.10;68.90
11426;DHT22;5769;47.998;7.788;2023-09-30T15:20:43;22.10;68.90
11426;DHT22;5769;47.998;7.788;2023-09-30T15:23:14;22.00;68.80
11426;DHT22;5769;47.998;7.788;2023-09-30T15:25:47;22.00;68.80
11426;DHT22;5769;47.998;7.788;2023-09-30T15:28:21;22.10;68.90
11426;DHT22;5769;47.998;7.788;2023-09-30T15:30:56;22.00;68.80
11426;DHT22;5769;47.998;7.788;2023-09-30T15:33:40;22.10;68.90
11426;DHT22;5769;47.998;7.788;2023-09-30T15:36:20;22.10;68.90
11426;DHT22;5769;47.998;7.788;2023-09-30T15:38:47;22.10;68.90
11426;DHT22;5769;47.998;7.788;2023-09-30T15:41:24;22.10;68.80
11426;DHT22;5769;47.998;7.788;2023-09-30T15:43:58;22.10;68.80
11426;DHT22;5769;47.998;7.788;2023-09-30T15:46:28;22.00;68.70
11426;DHT22;5769;47.998;7.788;2023-09-30T15:49:02;22.10;68.70
11426;DHT22;5769;47.998;7.788;2023-09-30T15:51:42;22.00;68.60
11426;DHT22;5769;47.998;7.788;2023-09-30T15:54:16;22.00;68.60
11426;DHT22;5769;47.998;7.788;2023-09-30T15:57:22;22.00;68.50